sensor_id;sensor_type;location;lat;lon;timestamp;pressure;altitude;pressure_sealevel;temperature;humidity
16194;BME280;8204;53.582;10.080;2023-04-30T07:31:37;102258.88;;;10.29;100.00
16194;BME280;8204;53.582;10.080;2023-04-30T07:34:06;102260.06;;;10.36;100.00
16194;BME280;8204;53.582;10.080;2023-04-30T07:36:35;102258.50;;;10.34;100.00
16194;BME280;8204;53.582;10.080;2023-04-30T07:39:05;102270.19;;;10.41;100.00
16194;BME280;8204;53.582;10.080;2023-04-30T07:41:37;102266.97;;;10.37;100.00
16194;BME280;8204;53.582;10.080;2023-04-30T07:44:06;102273.63;;;10.41;100.00
16194;BME280;8204;53.582;10.080;2023-04-30T07:46:39;102278.03;;;10.52;100.00
16194;BME280;8204;53.582;10.080;2023-04-30T07:49:08;102272.06;;;10.61;100.00
16194;BME280;8204;53.582;10.080;2023-04-30T07:51:37;102268.38;;;10.63;100.00
16194;BME280;8204;53.582;10.080;2023-04-30T07:54:07;102273.94;;;10.70;100.00
16194;BME280;8204;53.582;10.080;2023-04-30T07:56:37;102278.72;;;10.76;100.00
16194;BME280;8204;53.582;10.080;2023-04-30T07:59:07;102286.19;;;10.80;100.00
16194;BME280;8204;53.582;10.080;2023-04-30T08:01:36;102288.00;;;10.80;100.00
16194;BME280;8204;53.582;10.080;2023-04-30T08:04:07;102280.59;;;10.85;100.00
16194;BME280;8204;53.582;10.080;2023-04-30T08:06:37;102284.38;;;10.91;100.00
16194;BME280;8204;53.582;10.080;2023-04-30T08:09:06;102277.69;;;10.98;100.00
16194;BME280;8204;53.582;10.080;2023-04-30T08:11:34;102277.78;;;11.08;100.00
16194;BME280;8204;53.582;10.080;2023-04-30T08:14:03;102272.88;;;11.14;100.00
16194;BME280;8204;53.582;10.080;2023-04-30T08:16:32;102277.03;;;11.17;100.00
16194;BME280;8204;53.582;10.080;2023-04-30T08:19:01;102275.59;;;11.24;100.00
16194;BME280;8204;53.582;10.080;2023-04-30T08:21:32;102275.00;;;11.20;100.00
16194;BME280;8204;53.582;10.080;2023-04-30T08:24:01;102270.25;;;11.14;100.00
16194;BME280;8204;53.582;10.080;2023-04-30T08:26:31;102284.91;;;11.17;100.00
16194;BME280;8204;53.582;10.080;2023-04-30T08:28:59;102283.56;;;11.22;100.00
16194;BME280;8204;53.582;10.080;2023-04-30T08:31:28;102286.47;;;11.08;100.00
16194;BME280;8204;53.582;10.080;2023-04-30T08:33:58;102291.97;;;11.05;100.00
16194;BME280;8204;53.582;10.080;2023-04-30T08:36:27;102285.31;;;11.01;100.00
16194;BME280;8204;53.582;10.080;2023-04-30T08:38:59;102282.31;;;11.06;100.00
16194;BME280;8204;53.582;10.080;2023-04-30T08:41:31;102279.09;;;11.02;100.00
16194;BME280;8204;53.582;10.080;2023-04-30T08:44:01;102279.31;;;11.10;100.00
16194;BME280;8204;53.582;10.080;2023-04-30T08:46:31;102274.78;;;11.12;100.00
16194;BME280;8204;53.582;10.080;2023-04-30T08:49:03;102271.66;;;11.18;100.00
16194;BME280;8204;53.582;10.080;2023-04-30T08:51:32;102277.84;;;11.17;100.00
16194;BME280;8204;53.582;10.080;2023-04-30T08:54:04;102279.75;;;11.15;100.00
16194;BME280;8204;53.582;10.080;2023-04-30T08:56:33;102278.81;;;11.16;100.00
16194;BME280;8204;53.582;10.080;2023-04-30T08:59:03;102281.06;;;11.21;100.00
16194;BME280;8204;53.582;10.080;2023-04-30T09:01:33;102280.31;;;11.30;100.00
16194;BME280;8204;53.582;10.080;2023-04-30T09:04:02;102280.63;;;11.36;100.00
16194;BME280;8204;53.582;10.080;2023-04-30T09:06:31;102283.97;;;11.38;100.00
16194;BME280;8204;53.582;10.080;2023-04-30T09:09:10;102287.41;;;11.39;100.00
16194;BME280;8204;53.582;10.080;2023-04-30T09:11:40;102272.38;;;11.41;100.00
16194;BME280;8204;53.582;10.080;2023-04-30T09:14:09;102285.97;;;11.46;100.00
16194;BME280;8204;53.582;10.080;2023-04-30T09:16:45;102281.28;;;11.49;100.00
16194;BME280;8204;53.582;10.080;2023-04-30T09:19:25;102287.03;;;11.54;100.00
16194;BME280;8204;53.582;10.080;2023-04-30T09:21:54;102285.56;;;11.61;100.00
16194;BME280;8204;53.582;10.080;2023-04-30T09:24:25;102287.41;;;11.70;100.00
16194;BME280;8204;53.582;10.080;2023-04-30T09:26:54;102280.50;;;11.69;99.23
16194;BME280;8204;53.582;10.080;2023-04-30T09:29:35;102280.38;;;11.70;98.15
16194;BME280;8204;53.582;10.080;2023-04-30T09:32:07;102278.16;;;11.66;97.73
16194;BME280;8204;53.582;10.080;2023-04-30T09:34:36;102278.59;;;11.71;98.48
16194;BME280;8204;53.582;10.080;2023-04-30T09:37:05;102278.72;;;11.69;97.50
16194;BME280;8204;53.582;10.080;2023-04-30T09:39:45;102279.47;;;11.81;100.00
16194;BME280;8204;53.582;10.080;2023-04-30T09:42:14;102273.88;;;11.95;100.00
16194;BME280;8204;53.582;10.080;2023-04-30T09:44:43;102261.69;;;11.94;98.22
16194;BME280;8204;53.582;10.080;2023-04-30T09:47:13;102265.69;;;11.88;93.57
16194;BME280;8204;53.582;10.080;2023-04-30T09:49:46;102272.06;;;11.86;93.73
16194;BME280;8204;53.582;10.080;2023-04-30T09:52:17;102266.03;;;11.74;91.57
16194;BME280;8204;53.582;10.080;2023-04-30T09:54:49;102266.03;;;11.74;91.93
16194;BME280;8204;53.582;10.080;2023-04-30T09:57:21;102261.06;;;11.81;95.98
16194;BME280;8204;53.582;10.080;2023-04-30T09:59:52;102263.91;;;11.89;96.69
16194;BME280;8204;53.582;10.080;2023-04-30T10:02:22;102253.75;;;12.05;98.15
16194;BME280;8204;53.582;10.080;2023-04-30T10:04:54;102258.75;;;12.08;93.27
16194;BME280;8204;53.582;10.080;2023-04-30T10:07:28;102249.75;;;12.10;94.90
16194;BME280;8204;53.582;10.080;2023-04-30T10:10:03;102247.13;;;12.10;94.97
16194;BME280;8204;53.582;10.080;2023-04-30T10:12:38;102247.69;;;12.14;92.83
16194;BME280;8204;53.582;10.080;2023-04-30T10:15:14;102243.97;;;12.16;90.32
16194;BME280;8204;53.582;10.080;2023-04-30T10:17:46;102243.75;;;12.29;90.80
16194;BME280;8204;53.582;10.080;2023-04-30T10:20:18;102234.53;;;12.43;96.69
16194;BME280;8204;53.582;10.080;2023-04-30T10:22:50;102237.16;;;12.43;86.69
16194;BME280;8204;53.582;10.080;2023-04-30T10:25:22;102238.00;;;12.44;86.20
16194;BME280;8204;53.582;10.080;2023-04-30T10:27:51;102234.28;;;12.56;87.56
16194;BME280;8204;53.582;10.080;2023-04-30T10:30:21;102232.78;;;12.72;90.82
16194;BME280;8204;53.582;10.080;2023-04-30T10:32:56;102230.72;;;12.85;94.95
16194;BME280;8204;53.582;10.080;2023-04-30T10:35:29;102222.72;;;12.87;90.86
16194;BME280;8204;53.582;10.080;2023-04-30T10:38:09;102223.72;;;12.95;87.91
16194;BME280;8204;53.582;10.080;2023-04-30T10:40:44;102221.91;;;13.05;89.09
16194;BME280;8204;53.582;10.080;2023-04-30T10:43:13;102210.81;;;13.02;87.00
16194;BME280;8204;53.582;10.080;2023-04-30T10:45:44;102221.78;;;13.07;88.62
16194;BME280;8204;53.582;10.080;2023-04-30T10:48:15;102216.53;;;13.16;85.88
16194;BME280;8204;53.582;10.080;2023-04-30T10:50:51;102209.75;;;13.23;87.94
16194;BME280;8204;53.582;10.080;2023-04-30T10:53:20;102203.91;;;13.29;86.28
16194;BME280;8204;53.582;10.080;2023-04-30T10:55:57;102205.97;;;13.35;86.27
16194;BME280;8204;53.582;10.080;2023-04-30T10:58:32;102204.00;;;13.37;84.43
16194;BME280;8204;53.582;10.080;2023-04-30T11:01:03;102204.44;;;13.42;85.20
16194;BME280;8204;53.582;10.080;2023-04-30T11:03:34;102202.44;;;13.63;87.33
16194;BME280;8204;53.582;10.080;2023-04-30T11:06:10;102197.59;;;13.68;86.11
16194;BME280;8204;53.582;10.080;2023-04-30T11:08:42;102198.22;;;13.88;88.22
16194;BME280;8204;53.582;10.080;2023-04-30T11:11:19;102200.66;;;13.99;83.06
16194;BME280;8204;53.582;10.080;2023-04-30T11:13:59;102195.63;;;14.06;83.18
16194;BME280;8204;53.582;10.080;2023-04-30T11:16:28;102183.22;;;14.25;82.15
16194;BME280;8204;53.582;10.080;2023-04-30T11:19:05;102182.47;;;14.33;80.48
16194;BME280;8204;53.582;10.080;2023-04-30T11:21:39;102194.03;;;14.49;81.35
16194;BME280;8204;53.582;10.080;2023-04-30T11:24:08;102185.09;;;14.59;80.65
16194;BME280;8204;53.582;10.080;2023-04-30T11:27:04;102189.28;;;14.53;75.79
16194;BME280;8204;53.582;10.080;2023-04-30T11:29:34;102183.03;;;14.54;77.68
16194;BME280;8204;53.582;10.080;2023-04-30T11:32:05;102191.06;;;14.61;76.13
16194;BME280;8204;53.582;10.080;2023-04-30T11:34:36;102180.44;;;14.71;75.52
16194;BME280;8204;53.582;10.080;2023-04-30T11:37:05;102180.88;;;14.66;76.20
16194;BME280;8204;53.582;10.080;2023-04-30T11:39:35;102180.19;;;14.47;74.99
16194;BME280;8204;53.582;10.080;2023-04-30T11:42:07;102182.28;;;14.61;76.15
16194;BME280;8204;53.582;10.080;2023-04-30T11:44:36;102179.44;;;14.72;73.61
16194;BME280;8204;53.582;10.080;2023-04-30T11:47:06;102173.66;;;14.86;75.15
16194;BME280;8204;53.582;10.080;2023-04-30T11:49:36;102151.31;;;14.98;75.14
16194;BME280;8204;53.582;10.080;2023-04-30T11:52:04;102175.00;;;15.07;75.25
16194;BME280;8204;53.582;10.080;2023-04-30T11:54:35;102176.69;;;15.16;73.68
16194;BME280;8204;53.582;10.080;2023-04-30T11:57:06;102168.06;;;15.24;75.96
16194;BME280;8204;53.582;10.080;2023-04-30T11:59:39;102171.31;;;15.43;75.79
16194;BME280;8204;53.582;10.080;2023-04-30T12:02:08;102166.16;;;15.59;73.75
16194;BME280;8204;53.582;10.080;2023-04-30T12:04:38;102166.13;;;15.84;74.94
16194;BME280;8204;53.582;10.080;2023-04-30T12:07:08;102166.81;;;15.94;71.75
16194;BME280;8204;53.582;10.080;2023-04-30T12:09:50;102163.50;;;15.92;69.83
16194;BME280;8204;53.582;10.080;2023-04-30T12:12:29;102160.56;;;15.95;70.76
16194;BME280;8204;53.582;10.080;2023-04-30T12:15:09;102157.66;;;16.14;69.97
16194;BME280;8204;53.582;10.080;2023-04-30T12:17:38;102146.50;;;16.44;71.86
16194;BME280;8204;53.582;10.080;2023-04-30T12:20:08;102145.25;;;16.72;73.60
16194;BME280;8204;53.582;10.080;2023-04-30T12:22:38;102137.66;;;16.84;70.59
16194;BME280;8204;53.582;10.080;2023-04-30T12:25:14;102138.47;;;17.01;67.65
16194;BME280;8204;53.582;10.080;2023-04-30T12:27:47;102142.59;;;17.03;65.54
16194;BME280;8204;53.582;10.080;2023-04-30T12:30:19;102140.97;;;16.86;63.34
16194;BME280;8204;53.582;10.080;2023-04-30T12:32:49;102138.00;;;16.82;63.71
16194;BME280;8204;53.582;10.080;2023-04-30T12:35:20;102143.09;;;16.75;64.16
16194;BME280;8204;53.582;10.080;2023-04-30T12:37:52;102136.66;;;17.01;63.07
16194;BME280;8204;53.582;10.080;2023-04-30T12:40:26;102130.69;;;17.31;62.95
16194;BME280;8204;53.582;10.080;2023-04-30T12:43:02;102134.25;;;17.62;63.10
16194;BME280;8204;53.582;10.080;2023-04-30T12:45:44;102128.81;;;17.56;61.96
16194;BME280;8204;53.582;10.080;2023-04-30T12:48:14;102130.09;;;17.75;63.42
16194;BME280;8204;53.582;10.080;2023-04-30T12:50:46;102116.88;;;18.06;64.47
16194;BME280;8204;53.582;10.080;2023-04-30T12:53:16;102118.66;;;18.13;61.80
16194;BME280;8204;53.582;10.080;2023-04-30T12:56:05;102110.00;;;18.49;63.33
16194;BME280;8204;53.582;10.080;2023-04-30T12:58:37;102111.19;;;18.69;59.55
16194;BME280;8204;53.582;10.080;2023-04-30T13:01:10;102113.41;;;18.80;57.61
16194;BME280;8204;53.582;10.080;2023-04-30T13:03:40;102107.69;;;18.69;56.24
16194;BME280;8204;53.582;10.080;2023-04-30T13:06:09;102108.09;;;18.80;57.28
16194;BME280;8204;53.582;10.080;2023-04-30T13:08:37;102109.03;;;19.09;57.02
16194;BME280;8204;53.582;10.080;2023-04-30T13:11:06;102103.09;;;19.22;56.01
16194;BME280;8204;53.582;10.080;2023-04-30T13:13:38;102101.72;;;19.26;55.48
16194;BME280;8204;53.582;10.080;2023-04-30T13:16:08;102098.72;;;19.29;55.51
16194;BME280;8204;53.582;10.080;2023-04-30T13:18:36;102098.25;;;19.54;56.27
16194;BME280;8204;53.582;10.080;2023-04-30T13:21:05;102090.63;;;19.80;55.75
16194;BME280;8204;53.582;10.080;2023-04-30T13:23:34;102083.69;;;19.93;56.11
16194;BME280;8204;53.582;10.080;2023-04-30T13:26:03;102073.44;;;20.11;56.05
16194;BME280;8204;53.582;10.080;2023-04-30T13:28:32;102074.84;;;20.49;56.25
16194;BME280;8204;53.582;10.080;2023-04-30T13:31:03;102066.41;;;20.66;55.09
16194;BME280;8204;53.582;10.080;2023-04-30T13:33:32;102070.31;;;20.85;55.55
16194;BME280;8204;53.582;10.080;2023-04-30T13:36:02;102071.22;;;20.98;53.83
16194;BME280;8204;53.582;10.080;2023-04-30T13:38:31;102064.44;;;20.96;53.91
16194;BME280;8204;53.582;10.080;2023-04-30T13:41:00;102068.50;;;21.19;50.51
16194;BME280;8204;53.582;10.080;2023-04-30T13:43:28;102062.28;;;21.06;51.91
16194;BME280;8204;53.582;10.080;2023-04-30T13:45:58;102051.69;;;20.91;50.58
16194;BME280;8204;53.582;10.080;2023-04-30T13:48:29;102059.09;;;21.23;51.84
16194;BME280;8204;53.582;10.080;2023-04-30T13:50:59;102049.72;;;21.33;51.03
16194;BME280;8204;53.582;10.080;2023-04-30T13:53:28;102061.56;;;21.25;50.61
16194;BME280;8204;53.582;10.080;2023-04-30T13:55:57;102046.44;;;21.31;50.89
16194;BME280;8204;53.582;10.080;2023-04-30T13:58:28;102046.09;;;21.41;51.05
16194;BME280;8204;53.582;10.080;2023-04-30T14:00:57;102047.94;;;21.87;52.47
16194;BME280;8204;53.582;10.080;2023-04-30T14:03:28;102032.63;;;22.21;52.39
16194;BME280;8204;53.582;10.080;2023-04-30T14:05:58;102034.34;;;22.48;50.76
16194;BME280;8204;53.582;10.080;2023-04-30T14:08:27;102036.63;;;22.77;50.86
16194;BME280;8204;53.582;10.080;2023-04-30T14:10:56;102033.53;;;22.99;50.80
16194;BME280;8204;53.582;10.080;2023-04-30T14:13:26;102022.63;;;23.20;49.35
16194;BME280;8204;53.582;10.080;2023-04-30T14:15:54;102022.78;;;23.32;47.52
16194;BME280;8204;53.582;10.080;2023-04-30T14:18:23;102015.34;;;23.40;47.89
16194;BME280;8204;53.582;10.080;2023-04-30T14:20:54;102021.53;;;23.34;47.17
16194;BME280;8204;53.582;10.080;2023-04-30T14:23:24;102016.53;;;23.57;47.70
16194;BME280;8204;53.582;10.080;2023-04-30T14:25:54;102004.72;;;23.71;49.44
16194;BME280;8204;53.582;10.080;2023-04-30T14:28:22;102003.75;;;23.59;47.41
16194;BME280;8204;53.582;10.080;2023-04-30T14:30:51;102007.53;;;23.39;47.57
16194;BME280;8204;53.582;10.080;2023-04-30T14:33:23;102005.09;;;23.87;48.68
16194;BME280;8204;53.582;10.080;2023-04-30T14:35:51;101999.25;;;23.97;47.99
16194;BME280;8204;53.582;10.080;2023-04-30T14:38:23;102006.78;;;23.69;47.01
16194;BME280;8204;53.582;10.080;2023-04-30T14:40:51;101996.03;;;23.82;46.88
16194;BME280;8204;53.582;10.080;2023-04-30T14:43:26;102000.75;;;24.17;48.01
16194;BME280;8204;53.582;10.080;2023-04-30T14:45:56;101995.13;;;24.31;45.83
16194;BME280;8204;53.582;10.080;2023-04-30T14:48:24;101995.22;;;24.19;45.63
16194;BME280;8204;53.582;10.080;2023-04-30T14:50:53;101993.03;;;24.33;46.44
16194;BME280;8204;53.582;10.080;2023-04-30T14:53:25;101990.72;;;24.43;45.21
16194;BME280;8204;53.582;10.080;2023-04-30T14:55:54;101984.75;;;24.41;46.34
16194;BME280;8204;53.582;10.080;2023-04-30T14:58:24;101981.53;;;24.57;45.73
16194;BME280;8204;53.582;10.080;2023-04-30T15:00:52;101986.00;;;24.32;45.46
16194;BME280;8204;53.582;10.080;2023-04-30T15:03:21;101982.09;;;24.04;45.61
16194;BME280;8204;53.582;10.080;2023-04-30T15:05:50;101984.22;;;23.96;46.95
16194;BME280;8204;53.582;10.080;2023-04-30T15:08:19;101980.13;;;23.93;47.38
16194;BME280;8204;53.582;10.080;2023-04-30T15:10:51;101984.69;;;24.17;48.16
16194;BME280;8204;53.582;10.080;2023-04-30T15:13:20;101982.78;;;24.24;46.56
16194;BME280;8204;53.582;10.080;2023-04-30T15:15:49;101976.88;;;24.46;46.71
16194;BME280;8204;53.582;10.080;2023-04-30T15:18:18;101970.81;;;24.27;46.47
16194;BME280;8204;53.582;10.080;2023-04-30T15:20:47;101973.84;;;24.36;45.88
16194;BME280;8204;53.582;10.080;2023-04-30T15:23:16;101969.59;;;24.53;46.60
16194;BME280;8204;53.582;10.080;2023-04-30T15:25:45;101974.97;;;24.71;44.86
16194;BME280;8204;53.582;10.080;2023-04-30T15:28:17;101968.47;;;24.85;46.04
16194;BME280;8204;53.582;10.080;2023-04-30T15:30:48;101963.13;;;25.03;46.67
16194;BME280;8204;53.582;10.080;2023-04-30T15:33:17;101964.56;;;25.23;44.97
16194;BME280;8204;53.582;10.080;2023-04-30T15:35:49;101959.09;;;25.48;45.32
16194;BME280;8204;53.582;10.080;2023-04-30T15:38:19;101954.81;;;25.29;44.42
16194;BME280;8204;53.582;10.080;2023-04-30T15:40:48;101964.84;;;25.33;44.70
16194;BME280;8204;53.582;10.080;2023-04-30T15:43:20;101963.00;;;25.16;43.78
16194;BME280;8204;53.582;10.080;2023-04-30T15:45:49;101953.75;;;25.12;45.19
16194;BME280;8204;53.582;10.080;2023-04-30T15:48:18;101950.47;;;25.28;45.65
16194;BME280;8204;53.582;10.080;2023-04-30T15:50:47;101947.31;;;25.31;44.82
16194;BME280;8204;53.582;10.080;2023-04-30T15:53:16;101951.41;;;25.51;43.78
16194;BME280;8204;53.582;10.080;2023-04-30T15:55:46;101947.75;;;24.92;43.81
16194;BME280;8204;53.582;10.080;2023-04-30T15:58:15;101946.09;;;24.91;44.64
16194;BME280;8204;53.582;10.080;2023-04-30T16:00:46;101939.88;;;24.97;44.77
16194;BME280;8204;53.582;10.080;2023-04-30T16:03:15;101936.00;;;25.11;44.14
16194;BME280;8204;53.582;10.080;2023-04-30T16:05:44;101938.16;;;25.02;44.54
16194;BME280;8204;53.582;10.080;2023-04-30T16:08:14;101934.69;;;25.20;44.48
16194;BME280;8204;53.582;10.080;2023-04-30T16:10:42;101932.56;;;24.86;43.66
16194;BME280;8204;53.582;10.080;2023-04-30T16:13:11;101935.97;;;24.75;45.04
16194;BME280;8204;53.582;10.080;2023-04-30T16:15:40;101933.44;;;24.98;45.70
16194;BME280;8204;53.582;10.080;2023-04-30T16:18:11;101930.38;;;24.77;44.63
16194;BME280;8204;53.582;10.080;2023-04-30T16:20:40;101925.50;;;24.92;43.68
16194;BME280;8204;53.582;10.080;2023-04-30T16:23:10;101922.81;;;24.74;44.16
16194;BME280;8204;53.582;10.080;2023-04-30T16:25:39;101918.75;;;24.65;45.38
16194;BME280;8204;53.582;10.080;2023-04-30T16:28:07;101916.59;;;24.55;44.45
16194;BME280;8204;53.582;10.080;2023-04-30T16:30:37;101926.16;;;24.45;44.71
16194;BME280;8204;53.582;10.080;2023-04-30T16:33:06;101928.03;;;24.44;44.73
16194;BME280;8204;53.582;10.080;2023-04-30T16:35:38;101920.97;;;24.50;44.13
16194;BME280;8204;53.582;10.080;2023-04-30T16:38:08;101914.28;;;24.59;44.31
16194;BME280;8204;53.582;10.080;2023-04-30T16:40:36;101920.59;;;24.46;46.53
16194;BME280;8204;53.582;10.080;2023-04-30T16:43:05;101914.56;;;24.51;45.15
16194;BME280;8204;53.582;10.080;2023-04-30T16:45:34;101911.00;;;24.57;44.64
16194;BME280;8204;53.582;10.080;2023-04-30T16:48:03;101912.25;;;24.54;45.22
16194;BME280;8204;53.582;10.080;2023-04-30T16:50:32;101904.22;;;24.54;44.90
16194;BME280;8204;53.582;10.080;2023-04-30T16:53:04;101902.56;;;24.53;44.21
16194;BME280;8204;53.582;10.080;2023-04-30T16:55:33;101910.09;;;24.38;44.74
16194;BME280;8204;53.582;10.080;2023-04-30T16:58:02;101902.03;;;24.21;44.34
16194;BME280;8204;53.582;10.080;2023-04-30T17:00:31;101901.09;;;24.33;45.33
16194;BME280;8204;53.582;10.080;2023-04-30T17:03:01;101896.72;;;24.38;44.37
16194;BME280;8204;53.582;10.080;2023-04-30T17:05:29;101894.81;;;24.21;44.91
16194;BME280;8204;53.582;10.080;2023-04-30T17:07:58;101887.56;;;24.28;45.09
16194;BME280;8204;53.582;10.080;2023-04-30T17:10:30;101892.81;;;24.17;44.67
16194;BME280;8204;53.582;10.080;2023-04-30T17:12:59;101893.78;;;23.98;44.80
16194;BME280;8204;53.582;10.080;2023-04-30T17:15:30;101885.72;;;23.73;44.79
16194;BME280;8204;53.582;10.080;2023-04-30T17:18:00;101892.00;;;23.48;45.63
16194;BME280;8204;53.582;10.080;2023-04-30T17:20:28;101892.53;;;23.32;45.97
16194;BME280;8204;53.582;10.080;2023-04-30T17:22:58;101893.06;;;22.90;46.03
16194;BME280;8204;53.582;10.080;2023-04-30T17:25:27;101892.28;;;22.71;46.41
16194;BME280;8204;53.582;10.080;2023-04-30T17:27:59;101896.88;;;22.44;47.58
16194;BME280;8204;53.582;10.080;2023-04-30T17:30:28;101902.00;;;22.26;47.42
16194;BME280;8204;53.582;10.080;2023-04-30T17:32:58;101897.28;;;22.09;48.14
16194;BME280;8204;53.582;10.080;2023-04-30T17:35:27;101891.28;;;21.81;48.05
16194;BME280;8204;53.582;10.080;2023-04-30T17:37:56;101896.78;;;21.60;49.01
16194;BME280;8204;53.582;10.080;2023-04-30T17:40:25;101886.88;;;21.41;50.31
16194;BME280;8204;53.582;10.080;2023-04-30T17:42:54;101894.19;;;21.20;49.04
16194;BME280;8204;53.582;10.080;2023-04-30T17:45:26;101884.91;;;21.10;49.77
16194;BME280;8204;53.582;10.080;2023-04-30T17:47:54;101887.91;;;20.94;49.67
16194;BME280;8204;53.582;10.080;2023-04-30T17:50:23;101880.25;;;20.78;50.09
16194;BME280;8204;53.582;10.080;2023-04-30T17:52:52;101884.84;;;20.63;50.51
16194;BME280;8204;53.582;10.080;2023-04-30T17:55:23;101887.03;;;20.53;50.89
16194;BME280;8204;53.582;10.080;2023-04-30T17:57:51;101892.84;;;20.36;50.59
16194;BME280;8204;53.582;10.080;2023-04-30T18:00:20;101898.88;;;20.23;50.67
16194;BME280;8204;53.582;10.080;2023-04-30T18:02:52;101899.03;;;20.15;51.39
16194;BME280;8204;53.582;10.080;2023-04-30T18:05:21;101891.63;;;20.11;52.07
16194;BME280;8204;53.582;10.080;2023-04-30T18:07:50;101896.66;;;19.99;52.42
16194;BME280;8204;53.582;10.080;2023-04-30T18:10:20;101901.06;;;19.92;52.84
16194;BME280;8204;53.582;10.080;2023-04-30T18:12:51;101903.19;;;19.82;53.82
16194;BME280;8204;53.582;10.080;2023-04-30T18:15:20;101902.69;;;19.73;54.87
16194;BME280;8204;53.582;10.080;2023-04-30T18:17:52;101905.88;;;19.62;54.98
16194;BME280;8204;53.582;10.080;2023-04-30T18:20:20;101905.34;;;19.52;55.10
16194;BME280;8204;53.582;10.080;2023-04-30T18:22:50;101912.97;;;19.40;55.99
16194;BME280;8204;53.582;10.080;2023-04-30T18:25:18;101907.34;;;19.29;57.37
16194;BME280;8204;53.582;10.080;2023-04-30T18:27:48;101914.31;;;19.15;56.77
16194;BME280;8204;53.582;10.080;2023-04-30T18:30:16;101915.56;;;19.05;57.60
16194;BME280;8204;53.582;10.080;2023-04-30T18:32:45;101911.84;;;19.00;58.22
16194;BME280;8204;53.582;10.080;2023-04-30T18:35:17;101902.50;;;18.89;58.47
16194;BME280;8204;53.582;10.080;2023-04-30T18:37:45;101910.75;;;18.80;58.90
16194;BME280;8204;53.582;10.080;2023-04-30T18:40:14;101910.63;;;18.73;59.56
16194;BME280;8204;53.582;10.080;2023-04-30T18:42:43;101921.97;;;18.67;61.44
16194;BME280;8204;53.582;10.080;2023-04-30T18:45:13;101911.75;;;18.64;61.68
16194;BME280;8204;53.582;10.080;2023-04-30T18:47:43;101918.22;;;18.47;62.11
16194;BME280;8204;53.582;10.080;2023-04-30T18:50:12;101920.31;;;18.37;62.41
16194;BME280;8204;53.582;10.080;2023-04-30T18:52:45;101921.03;;;18.32;62.96
16194;BME280;8204;53.582;10.080;2023-04-30T18:55:14;101914.31;;;18.21;62.77
16194;BME280;8204;53.582;10.080;2023-04-30T18:57:43;101918.66;;;18.14;63.28
16194;BME280;8204;53.582;10.080;2023-04-30T19:00:12;101923.84;;;18.08;62.92
16194;BME280;8204;53.582;10.080;2023-04-30T19:02:41;101928.69;;;18.04;65.42
16194;BME280;8204;53.582;10.080;2023-04-30T19:05:10;101930.28;;;17.91;66.15
16194;BME280;8204;53.582;10.080;2023-04-30T19:07:39;101930.53;;;17.81;66.27
16194;BME280;8204;53.582;10.080;2023-04-30T19:10:11;101927.72;;;17.75;68.14
16194;BME280;8204;53.582;10.080;2023-04-30T19:12:41;101921.19;;;17.63;68.08
16194;BME280;8204;53.582;10.080;2023-04-30T19:15:11;101926.53;;;17.55;69.94
16194;BME280;8204;53.582;10.080;2023-04-30T19:17:40;101923.47;;;17.44;71.22
16194;BME280;8204;53.582;10.080;2023-04-30T19:20:11;101929.63;;;17.36;70.39
16194;BME280;8204;53.582;10.080;2023-04-30T19:22:40;101926.69;;;17.31;71.49
16194;BME280;8204;53.582;10.080;2023-04-30T19:25:12;101923.03;;;17.24;72.46
16194;BME280;8204;53.582;10.080;2023-04-30T19:27:43;101932.66;;;17.17;73.06
16194;BME280;8204;53.582;10.080;2023-04-30T19:30:12;101928.56;;;17.07;74.16
16194;BME280;8204;53.582;10.080;2023-04-30T19:32:41;101921.81;;;16.96;74.74
16194;BME280;8204;53.582;10.080;2023-04-30T19:35:11;101931.78;;;16.94;77.37
16194;BME280;8204;53.582;10.080;2023-04-30T19:37:40;101931.91;;;17.01;79.42
16194;BME280;8204;53.582;10.080;2023-04-30T19:40:12;101931.97;;;16.85;81.67
16194;BME280;8204;53.582;10.080;2023-04-30T19:42:43;101939.94;;;16.77;83.35
16194;BME280;8204;53.582;10.080;2023-04-30T19:45:13;101927.88;;;16.67;82.82
16194;BME280;8204;53.582;10.080;2023-04-30T19:47:41;101932.00;;;16.61;84.12
16194;BME280;8204;53.582;10.080;2023-04-30T19:50:11;101943.63;;;16.52;85.19
16194;BME280;8204;53.582;10.080;2023-04-30T19:52:40;101944.13;;;16.48;85.67
16194;BME280;8204;53.582;10.080;2023-04-30T19:55:11;101943.81;;;16.43;85.62
16194;BME280;8204;53.582;10.080;2023-04-30T19:57:40;101938.66;;;16.41;87.58
16194;BME280;8204;53.582;10.080;2023-04-30T20:00:11;101943.94;;;16.33;89.58
16194;BME280;8204;53.582;10.080;2023-04-30T20:02:41;101945.75;;;16.17;89.82
16194;BME280;8204;53.582;10.080;2023-04-30T20:05:10;101937.16;;;16.07;89.62
16194;BME280;8204;53.582;10.080;2023-04-30T20:07:40;101931.53;;;16.02;88.95
16194;BME280;8204;53.582;10.080;2023-04-30T20:10:11;101933.84;;;15.97;89.27
16194;BME280;8204;53.582;10.080;2023-04-30T20:12:41;101927.41;;;15.92;88.92
16194;BME280;8204;53.582;10.080;2023-04-30T20:15:10;101929.84;;;15.85;92.38
16194;BME280;8204;53.582;10.080;2023-04-30T20:17:40;101930.19;;;15.82;92.80
16194;BME280;8204;53.582;10.080;2023-04-30T20:20:11;101936.97;;;15.77;93.10
16194;BME280;8204;53.582;10.080;2023-04-30T20:22:41;101937.44;;;15.72;94.07
16194;BME280;8204;53.582;10.080;2023-04-30T20:25:15;101933.97;;;15.72;94.21
16194;BME280;8204;53.582;10.080;2023-04-30T20:27:45;101936.94;;;15.69;94.95
16194;BME280;8204;53.582;10.080;2023-04-30T20:30:15;101925.38;;;15.70;95.75
16194;BME280;8204;53.582;10.080;2023-04-30T20:32:46;101926.03;;;15.64;94.89
16194;BME280;8204;53.582;10.080;2023-04-30T20:35:15;101936.25;;;15.59;96.60